Waynesville, NC

3:30 AM EDT on April 28, 2015 (GMT -0400)
Bethel Vue | | Change Station
CLOSE
Current Station
Personal Weather Station
Location: Waynesville, NC
Elevation: 2895 ft
Nearby Weather Stations
Active Advisory: Frost Advisory

Elev 2895 ft 35.48 °N, 82.92 °W | Updated 58 days ago

Clear
Clear
39 °F
Feels Like 39 °F
N
2
Wind Variable Wind from North
Gusts mph

Today
High -- | Low -- °F
--% Chance of Precip.
Yesterday
High -- | Low -- °F
Precip. -- in
6:43 AM 8:15 PM
Waxing Gibbous, 71% visible
Pressure 29.95 in
Visibility 10.0 miles
Clouds Clear
Dew Point 33 °F
Humidity 79%
Rainfall in
Snow Depth Not available.
UV 0 out of 12
Pollen 10.30 out of 12
Air Quality Not available.
Flu Activity Sporadic
METAR KAVL 280654Z AUTO 01003KT 10SM CLR 08/01 A2995

More Conditions Fewer Conditions

Pressure 29.95 in
Visibility 10.0 miles
Clouds Clear
Dew Point 33 °F
Humidity 79%
Rainfall in
Snow Depth Not available.
UV 0 out of 12
Pollen 10.30 out of 12
Air Quality Not available.
Flu Activity Sporadic
METAR KAVL 280654Z AUTO 01003KT 10SM CLR 08/01 A2995

More Conditions Fewer Conditions

10-Day Weather Forecast

Almanac

Astronomy

Apr. 28, 2015 Rise Set
Actual Time
Civil Twilight
Nautical Twilight
Astronomical Twilight
Moon
Length of Visible Light
Length of Day
Tomorrow will be .
, % of the Moon is Illuminated

Today's Extremes

State Highs State Lows

Community

WunderPhotos

Upload Photos

1,817,594 photos uploaded!

WunderBlogs® & News

Nearby

Air Quality

  Air Quality AQ Index Pollutant
Not available.

Snow Depth

Station Depth Elevation

Earthquake Activity

City Distance Mag. Time & Date
Minimum magnitude displayed is 2.5.

Coastal Water Temperatures

Place Temperature

Stations

Nearby Weather Stations

Station Location Temp. Windchill Dew Point Humidity Wind Precip. Elev Updated Type
                   
Frost Advisory
Statement as of 10:27 PM EDT on April 27, 2015

... Frost advisory remains in effect from 2 am to 9 am EDT
Tuesday...

* locations... the North Carolina mountain counties along the
Tennessee border from Swain northward to Avery... including the
Blue Ridge areas of McDowell... Burke and Caldwell.

* Temperatures... lows in the mid to upper 30s.

* Winds... north 5 mph or less.

* Impacts... frost could damage new or tender vegetation.

Precautionary/preparedness actions...

A frost advisory means that frost is possible. Sensitive outdoor
plants may be killed if left uncovered.